Time;durP1;ratioP1;P1;durP2;ratioP2;P2;SDS_P1;SDS_P2;PMS_P1;PMS_P2;Temp;Humidity;BMP_temperature;BMP_pressure;BME280_temperature;BME280_humidity;BME280_pressure;Samples;Min_cycle;Max_cycle;Signal;HPM_P1;HPM_P2
2022/01/02 00:01:13;;;;;;;;;;;;;;;10.48;100.00;101550.88;5018267;28;19967;-72
2022/01/02 00:03:59;;;;;;;;;;;;;;;10.48;100.00;101553.50;5021265;28;19967;-72
2022/01/02 00:06:47;;;;;;;;;;;;;;;10.48;100.00;101555.31;5021474;28;19971;-72
2022/01/02 00:09:33;;;;;;;;;;;;;;;10.28;100.00;101546.41;5020053;28;20004;-73
2022/01/02 00:12:18;;;;;;;;;;;;;;;10.29;100.00;101541.03;5010803;28;19920;-73
2022/01/02 00:15:04;;;;;;;;;;;;;;;10.24;100.00;101540.56;5016016;28;20393;-71
2022/01/02 00:17:50;;;;;;;;;;;;;;;10.29;100.00;101545.47;5032545;28;20017;-72
2022/01/02 00:20:44;;;;;;;;;;;;;;;10.09;100.00;101540.03;5009801;28;19920;-71
2022/01/02 00:23:32;;;;;;;;;;;;;;;10.03;100.00;101542.31;5011050;28;20817;-71
2022/01/02 00:26:18;;;;;;;;;;;;;;;9.85;100.00;101529.75;5018115;28;20004;-71
2022/01/02 00:29:04;;;;;;;;;;;;;;;9.84;100.00;101533.31;4997388;28;20290;-71
2022/01/02 00:31:48;;;;;;;;;;;;;;;9.85;100.00;101539.38;5037233;28;19924;-71
2022/01/02 00:34:34;;;;;;;;;;;;;;;9.82;100.00;101544.88;5002136;28;20124;-71
2022/01/02 00:37:18;;;;;;;;;;;;;;;9.92;100.00;101548.41;5009080;28;19960;-71
2022/01/02 00:40:03;;;;;;;;;;;;;;;9.82;100.00;101540.47;5005178;28;19927;-71
2022/01/02 00:42:50;;;;;;;;;;;;;;;9.94;100.00;101534.25;5024921;28;19927;-71
2022/01/02 00:45:40;;;;;;;;;;;;;;;9.99;100.00;101528.63;5000042;28;19923;-72
2022/01/02 00:48:28;;;;;;;;;;;;;;;9.97;100.00;101535.78;5023394;28;20393;-71
2022/01/02 00:51:23;;;;;;;;;;;;;;;9.99;100.00;101517.31;5011774;28;20661;-71
2022/01/02 00:54:14;;;;;;;;;;;;;;;9.88;100.00;101508.50;5036225;28;19928;-72
2022/01/02 00:57:03;;;;;;;;;;;;;;;9.86;100.00;101513.03;5039003;28;20289;-71
2022/01/02 00:59:53;;;;;;;;;;;;;;;9.73;100.00;101499.28;5003459;28;19924;-72
2022/01/02 01:02:40;;;;;;;;;;;;;;;9.81;100.00;101498.66;5024229;28;20169;-72
2022/01/02 01:05:28;;;;;;;;;;;;;;;9.84;100.00;101490.56;5006568;28;20420;-70
2022/01/02 01:08:14;;;;;;;;;;;;;;;9.79;100.00;101482.22;5005663;28;19920;-73
2022/01/02 01:10:58;;;;;;;;;;;;;;;9.79;100.00;101485.66;5012710;28;20626;-72
2022/01/02 01:13:44;;;;;;;;;;;;;;;9.78;100.00;101489.25;5021647;28;19928;-71
2022/01/02 01:16:29;;;;;;;;;;;;;;;9.71;100.00;101478.44;5003854;28;20412;-72
2022/01/02 01:19:13;;;;;;;;;;;;;;;9.70;100.00;101481.16;5018519;28;20441;-72
2022/01/02 01:21:58;;;;;;;;;;;;;;;9.70;100.00;101486.41;5018766;28;20041;-72
2022/01/02 01:24:42;;;;;;;;;;;;;;;9.75;100.00;101484.25;5016815;28;19968;-71
2022/01/02 01:27:27;;;;;;;;;;;;;;;9.80;100.00;101479.50;5014297;28;19924;-71
2022/01/02 01:30:12;;;;;;;;;;;;;;;9.77;100.00;101471.03;5016199;28;19988;-72
2022/01/02 01:32:56;;;;;;;;;;;;;;;9.82;100.00;101469.72;5035247;28;19971;-72
2022/01/02 01:35:40;;;;;;;;;;;;;;;9.75;100.00;101464.13;5008230;28;20004;-74
2022/01/02 01:38:24;;;;;;;;;;;;;;;9.82;100.00;101458.41;5017659;28;20420;-71
2022/01/02 01:41:42;;;;;;;;;;;;;;;9.81;100.00;101441.84;5018779;28;19924;-71
2022/01/02 01:44:38;;;;;;;;;;;;;;;9.78;100.00;101438.66;5002662;28;19960;-72
2022/01/02 01:47:23;;;;;;;;;;;;;;;9.73;100.00;101433.78;5014617;28;19928;-71
2022/01/02 01:50:07;;;;;;;;;;;;;;;9.77;100.00;101432.56;5009212;28;20012;-71
2022/01/02 01:52:54;;;;;;;;;;;;;;;9.60;100.00;101410.34;5021596;28;19966;-71
2022/01/02 01:55:40;;;;;;;;;;;;;;;9.66;100.00;101425.59;5003910;28;19924;-70
2022/01/02 01:58:24;;;;;;;;;;;;;;;9.47;100.00;101444.53;5024431;28;19980;-70
2022/01/02 02:01:09;;;;;;;;;;;;;;;9.63;100.00;101441.53;5028839;28;20401;-71
2022/01/02 02:04:03;;;;;;;;;;;;;;;9.65;100.00;101439.63;5041306;28;20002;-71
2022/01/02 02:06:48;;;;;;;;;;;;;;;9.66;100.00;101448.31;5019150;28;19927;-72
2022/01/02 02:09:58;;;;;;;;;;;;;;;9.70;100.00;101470.69;5017921;28;19967;-69
2022/01/02 02:12:40;;;;;;;;;;;;;;;9.66;100.00;101477.13;5017075;28;20133;-70
2022/01/02 02:15:25;;;;;;;;;;;;;;;9.64;100.00;101485.09;5015141;28;20393;-73
2022/01/02 02:18:11;;;;;;;;;;;;;;;9.60;100.00;101460.13;5021385;28;19924;-72
2022/01/02 02:20:55;;;;;;;;;;;;;;;9.57;100.00;101447.28;5030453;28;19963;-70
2022/01/02 02:23:48;;;;;;;;;;;;;;;9.55;100.00;101439.53;5026274;28;19955;-71
2022/01/02 02:26:33;;;;;;;;;;;;;;;9.54;100.00;101424.78;5017192;28;19943;-71
2022/01/02 02:29:17;;;;;;;;;;;;;;;9.42;100.00;101412.69;5010571;28;20047;-71
2022/01/02 02:32:01;;;;;;;;;;;;;;;9.42;100.00;101409.19;5028192;28;19924;-72
2022/01/02 02:34:45;;;;;;;;;;;;;;;9.43;100.00;101387.31;5017031;28;20495;-71
2022/01/02 02:37:30;;;;;;;;;;;;;;;9.33;100.00;101376.75;5014305;28;19927;-71
2022/01/02 02:40:15;;;;;;;;;;;;;;;9.20;100.00;101358.56;5009430;28;19990;-70
2022/01/02 02:49:00;;;;;;;;;;;;;;;9.27;100.00;101393.78;5034814;28;20690;-71
2022/01/02 02:51:54;;;;;;;;;;;;;;;9.22;100.00;101395.09;5018626;28;19936;-71
2022/01/02 02:54:51;;;;;;;;;;;;;;;9.28;100.00;101387.56;5021510;28;19936;-71
2022/01/02 02:57:38;;;;;;;;;;;;;;;9.29;100.00;101396.28;4999560;28;19924;-70
2022/01/02 03:00:22;;;;;;;;;;;;;;;9.20;100.00;101386.53;5029068;28;20013;-70
2022/01/02 03:03:06;;;;;;;;;;;;;;;9.23;100.00;101381.03;5016991;28;20010;-72
2022/01/02 03:05:51;;;;;;;;;;;;;;;9.14;100.00;101380.00;5009362;28;19928;-71
2022/01/02 03:08:36;;;;;;;;;;;;;;;9.06;100.00;101371.91;5020263;28;19963;-74
2022/01/02 03:11:21;;;;;;;;;;;;;;;9.08;100.00;101368.25;5014674;28;20016;-73
2022/01/02 03:14:06;;;;;;;;;;;;;;;9.04;100.00;101364.22;4996340;28;19978;-74
2022/01/02 03:16:50;;;;;;;;;;;;;;;8.99;100.00;101352.44;5009223;28;19939;-72
2022/01/02 03:19:35;;;;;;;;;;;;;;;9.08;100.00;101344.69;5007295;28;19920;-72
2022/01/02 03:22:19;;;;;;;;;;;;;;;9.11;100.00;101343.59;5033746;28;19924;-72
2022/01/02 03:25:03;;;;;;;;;;;;;;;9.20;100.00;101339.44;5021503;28;19927;-73
2022/01/02 03:27:48;;;;;;;;;;;;;;;9.19;100.00;101341.19;5014135;28;20022;-73
2022/01/02 03:30:32;;;;;;;;;;;;;;;9.15;100.00;101330.16;5020128;28;20402;-71
2022/01/02 03:33:16;;;;;;;;;;;;;;;9.17;100.00;101324.78;5026344;28;19967;-70
2022/01/02 03:36:01;;;;;;;;;;;;;;;9.19;100.00;101316.81;5000806;28;20007;-71
2022/01/02 03:38:47;;;;;;;;;;;;;;;9.14;100.00;101301.50;5002424;28;19920;-72
2022/01/02 03:41:32;;;;;;;;;;;;;;;9.16;100.00;101307.44;5011732;28;20425;-70
2022/01/02 03:44:16;;;;;;;;;;;;;;;9.16;100.00;101313.50;5019789;28;19923;-72
2022/01/02 03:47:01;;;;;;;;;;;;;;;9.14;100.00;101283.16;5021827;28;19927;-72
2022/01/02 03:49:45;;;;;;;;;;;;;;;9.11;100.00;101270.31;5004418;28;19924;-72
2022/01/02 03:52:29;;;;;;;;;;;;;;;9.15;100.00;101279.56;5010833;28;19932;-72
2022/01/02 03:55:14;;;;;;;;;;;;;;;9.13;100.00;101289.34;5005375;28;20329;-73
2022/01/02 03:57:59;;;;;;;;;;;;;;;9.10;100.00;101287.00;5008960;28;19971;-73
2022/01/02 04:00:43;;;;;;;;;;;;;;;9.06;100.00;101282.94;5015008;28;20028;-72
2022/01/02 04:03:27;;;;;;;;;;;;;;;9.06;100.00;101304.72;5021151;28;20707;-73
2022/01/02 04:06:11;;;;;;;;;;;;;;;9.07;100.00;101290.66;5012710;28;19924;-73
2022/01/02 04:08:55;;;;;;;;;;;;;;;8.99;100.00;101289.63;5016242;28;20024;-73
2022/01/02 04:11:39;;;;;;;;;;;;;;;8.99;100.00;101259.06;5015800;28;20484;-73
2022/01/02 04:14:23;;;;;;;;;;;;;;;9.03;100.00;101247.38;5018720;28;19923;-73
2022/01/02 04:17:08;;;;;;;;;;;;;;;9.03;100.00;101244.78;5001931;28;19966;-73
2022/01/02 04:19:52;;;;;;;;;;;;;;;9.05;100.00;101244.66;5017580;28;19924;-73
2022/01/02 04:22:36;;;;;;;;;;;;;;;9.02;100.00;101237.88;5024555;28;19923;-75
2022/01/02 04:25:21;;;;;;;;;;;;;;;9.03;100.00;101225.63;5021454;28;19920;-72
2022/01/02 04:28:05;;;;;;;;;;;;;;;9.00;100.00;101207.56;5005023;28;20531;-74
2022/01/02 04:30:49;;;;;;;;;;;;;;;9.05;100.00;101205.41;5022345;28;19966;-73
2022/01/02 04:33:33;;;;;;;;;;;;;;;9.01;100.00;101207.44;5017549;28;19943;-74
2022/01/02 04:36:17;;;;;;;;;;;;;;;9.01;100.00;101202.22;5008467;28;19924;-73
2022/01/02 04:39:01;;;;;;;;;;;;;;;9.05;100.00;101203.59;5017352;28;19920;-74
2022/01/02 04:41:47;;;;;;;;;;;;;;;9.06;100.00;101196.59;5013933;28;20452;-73
2022/01/02 04:44:31;;;;;;;;;;;;;;;9.01;100.00;101181.28;5003745;28;20369;-73
2022/01/02 04:47:16;;;;;;;;;;;;;;;9.00;100.00;101166.50;5018351;28;19970;-74
2022/01/02 04:50:01;;;;;;;;;;;;;;;9.03;100.00;101174.13;5007698;28;19927;-73
2022/01/02 04:52:45;;;;;;;;;;;;;;;9.05;100.00;101184.47;5010069;28;19986;-74
2022/01/02 04:55:30;;;;;;;;;;;;;;;9.05;100.00;101180.06;5021876;28;19920;-72
2022/01/02 04:58:15;;;;;;;;;;;;;;;9.08;100.00;101168.50;5008069;28;19919;-73
2022/01/02 05:01:00;;;;;;;;;;;;;;;9.02;100.00;101161.97;5029223;28;19928;-74
2022/01/02 05:03:47;;;;;;;;;;;;;;;9.01;100.00;101159.50;5022900;28;19963;-73
2022/01/02 05:06:32;;;;;;;;;;;;;;;9.00;100.00;101150.00;5012797;28;19920;-73
2022/01/02 05:09:20;;;;;;;;;;;;;;;9.01;100.00;101139.41;5013970;28;19976;-73
2022/01/02 05:12:04;;;;;;;;;;;;;;;9.02;100.00;101156.75;5012664;28;19968;-74
2022/01/02 05:14:49;;;;;;;;;;;;;;;8.99;100.00;101145.72;5022053;28;20155;-74
2022/01/02 05:17:33;;;;;;;;;;;;;;;8.96;100.00;101134.53;5014493;28;20434;-73
2022/01/02 05:20:18;;;;;;;;;;;;;;;9.03;100.00;101128.81;5005989;28;20400;-73
2022/01/02 05:23:02;;;;;;;;;;;;;;;9.05;100.00;101129.53;5014181;28;19920;-73
2022/01/02 05:25:46;;;;;;;;;;;;;;;9.01;100.00;101128.94;5012965;28;20382;-73
2022/01/02 05:28:32;;;;;;;;;;;;;;;9.03;100.00;101126.19;5013121;28;19936;-73
2022/01/02 05:31:16;;;;;;;;;;;;;;;9.06;100.00;101126.78;5020904;28;20027;-74
2022/01/02 05:34:00;;;;;;;;;;;;;;;9.09;100.00;101123.06;5013557;28;19924;-73
2022/01/02 05:36:48;;;;;;;;;;;;;;;9.13;100.00;101117.44;5015356;28;20337;-74
2022/01/02 05:39:34;;;;;;;;;;;;;;;9.21;100.00;101114.22;5013797;28;19924;-73
2022/01/02 05:42:18;;;;;;;;;;;;;;;9.19;100.00;101110.88;5002241;28;19924;-73
2022/01/02 05:45:03;;;;;;;;;;;;;;;9.18;100.00;101105.78;5014722;28;20138;-73
2022/01/02 05:47:47;;;;;;;;;;;;;;;9.23;100.00;101093.97;5022263;28;19920;-74
2022/01/02 05:50:31;;;;;;;;;;;;;;;9.26;100.00;101085.03;5018657;28;19975;-74
2022/01/02 05:53:16;;;;;;;;;;;;;;;9.30;100.00;101084.63;5021494;28;19971;-73
2022/01/02 05:56:00;;;;;;;;;;;;;;;9.27;100.00;101077.03;5015306;28;20039;-73
2022/01/02 05:58:44;;;;;;;;;;;;;;;9.25;100.00;101070.25;5016236;28;20295;-73
2022/01/02 06:01:28;;;;;;;;;;;;;;;9.27;100.00;101056.09;5017398;28;19967;-73
2022/01/02 06:04:12;;;;;;;;;;;;;;;9.27;100.00;101050.03;5032399;28;19971;-74
2022/01/02 06:06:57;;;;;;;;;;;;;;;9.27;100.00;101037.78;5013967;28;19927;-74
2022/01/02 06:09:43;;;;;;;;;;;;;;;9.26;100.00;101037.91;5025713;28;20333;-73
2022/01/02 06:12:28;;;;;;;;;;;;;;;9.22;100.00;101032.09;5003357;28;19924;-73
2022/01/02 06:15:12;;;;;;;;;;;;;;;9.20;100.00;101020.94;5004933;28;19964;-72
2022/01/02 06:17:56;;;;;;;;;;;;;;;9.19;100.00;101040.19;5019484;28;19940;-73
2022/01/02 06:20:40;;;;;;;;;;;;;;;9.13;100.00;101025.84;5019280;28;19929;-75
2022/01/02 06:23:24;;;;;;;;;;;;;;;9.19;100.00;101042.81;5015994;28;19944;-72
2022/01/02 06:26:08;;;;;;;;;;;;;;;9.21;100.00;101029.59;5014616;28;19963;-73
2022/01/02 06:28:52;;;;;;;;;;;;;;;9.22;100.00;101031.28;5013455;28;19988;-74
2022/01/02 06:31:36;;;;;;;;;;;;;;;9.20;100.00;101030.59;4998794;28;19948;-74
2022/01/02 06:34:20;;;;;;;;;;;;;;;9.28;100.00;101017.66;5015099;28;19920;-73
2022/01/02 06:37:04;;;;;;;;;;;;;;;9.34;100.00;101025.81;5018321;28;19920;-73
2022/01/02 06:39:48;;;;;;;;;;;;;;;9.37;100.00;101026.53;5003749;28;20001;-73
2022/01/02 06:42:33;;;;;;;;;;;;;;;9.35;100.00;101029.25;5009886;28;19929;-72
2022/01/02 06:45:18;;;;;;;;;;;;;;;9.39;100.00;101028.03;5018220;28;20021;-74
2022/01/02 06:48:03;;;;;;;;;;;;;;;9.39;100.00;101035.06;5022202;28;19919;-73
2022/01/02 06:50:48;;;;;;;;;;;;;;;9.35;100.00;101030.09;5019763;28;19924;-73
2022/01/02 06:53:32;;;;;;;;;;;;;;;9.32;100.00;101026.91;5025296;28;19924;-73
2022/01/02 06:56:16;;;;;;;;;;;;;;;9.35;100.00;101031.88;5031460;28;20000;-73
2022/01/02 06:59:00;;;;;;;;;;;;;;;9.39;100.00;101035.88;5014728;28;19966;-74
2022/01/02 07:01:45;;;;;;;;;;;;;;;9.35;100.00;101040.56;5025408;28;20086;-73
2022/01/02 07:04:30;;;;;;;;;;;;;;;9.32;100.00;101030.38;5032512;28;20011;-73
2022/01/02 07:07:15;;;;;;;;;;;;;;;9.31;100.00;101030.50;5011484;28;19999;-74
2022/01/02 07:10:01;;;;;;;;;;;;;;;9.33;100.00;101020.72;5017683;28;19927;-73
2022/01/02 07:12:44;;;;;;;;;;;;;;;9.40;100.00;101026.25;5013431;28;19936;-72
2022/01/02 07:15:29;;;;;;;;;;;;;;;9.46;100.00;101016.06;5018991;28;19920;-74
2022/01/02 07:18:13;;;;;;;;;;;;;;;9.42;100.00;101017.31;5021183;28;20417;-73
2022/01/02 07:20:57;;;;;;;;;;;;;;;9.42;100.00;101017.31;5013910;28;20035;-73
2022/01/02 07:23:42;;;;;;;;;;;;;;;9.48;100.00;101010.72;5014684;28;19920;-72
2022/01/02 07:26:26;;;;;;;;;;;;;;;9.52;100.00;101015.53;5010303;28;19924;-73
2022/01/02 07:29:10;;;;;;;;;;;;;;;9.55;100.00;101004.81;5031638;28;19924;-74
2022/01/02 07:31:54;;;;;;;;;;;;;;;9.58;100.00;101005.50;5025708;28;20404;-74
2022/01/02 07:34:39;;;;;;;;;;;;;;;9.69;100.00;101008.00;5016826;28;19939;-73
2022/01/02 07:37:22;;;;;;;;;;;;;;;9.71;100.00;101008.72;5017548;28;19966;-72
2022/01/02 07:40:07;;;;;;;;;;;;;;;9.68;100.00;100998.50;5016604;28;19943;-72
2022/01/02 07:42:51;;;;;;;;;;;;;;;9.79;100.00;100997.56;5031919;28;19962;-74
2022/01/02 07:45:42;;;;;;;;;;;;;;;9.79;100.00;100985.28;5004077;28;20442;-73
2022/01/02 07:48:26;;;;;;;;;;;;;;;9.91;100.00;100991.25;5025544;28;19920;-73
2022/01/02 07:51:10;;;;;;;;;;;;;;;9.92;100.00;100993.69;5004586;28;19962;-73
2022/01/02 07:53:55;;;;;;;;;;;;;;;9.91;100.00;100994.69;5022110;28;19923;-73
2022/01/02 07:56:39;;;;;;;;;;;;;;;9.85;100.00;100976.03;5031415;28;20173;-73
2022/01/02 07:59:23;;;;;;;;;;;;;;;9.91;100.00;100968.47;5010177;28;20397;-73
2022/01/02 08:02:07;;;;;;;;;;;;;;;9.95;100.00;100976.91;5022097;28;20290;-74
2022/01/02 08:04:54;;;;;;;;;;;;;;;9.93;100.00;100970.97;5031431;28;20436;-73
2022/01/02 08:07:39;;;;;;;;;;;;;;;9.93;100.00;100952.63;5030198;28;20599;-73
2022/01/02 08:10:23;;;;;;;;;;;;;;;9.97;100.00;100950.56;5010121;28;19928;-71
2022/01/02 08:13:06;;;;;;;;;;;;;;;9.95;100.00;100953.31;5025778;28;19936;-72
2022/01/02 08:15:50;;;;;;;;;;;;;;;10.01;100.00;100950.13;5030892;28;19966;-73
2022/01/02 08:18:34;;;;;;;;;;;;;;;10.07;100.00;100943.53;5029866;28;19979;-73
2022/01/02 08:21:19;;;;;;;;;;;;;;;10.03;100.00;100940.34;5013527;28;19928;-73
2022/01/02 08:24:03;;;;;;;;;;;;;;;10.08;100.00;100947.81;5018124;28;20293;-73
2022/01/02 08:26:47;;;;;;;;;;;;;;;10.02;100.00;100933.47;5009052;28;19920;-73
2022/01/02 08:29:31;;;;;;;;;;;;;;;10.05;100.00;100924.50;5013161;28;19972;-72
2022/01/02 08:32:15;;;;;;;;;;;;;;;10.08;100.00;100917.19;5024907;28;20528;-74
2022/01/02 08:34:59;;;;;;;;;;;;;;;10.09;100.00;100910.13;5027477;28;20413;-74
2022/01/02 08:37:43;;;;;;;;;;;;;;;10.11;100.00;100909.06;5002998;28;19924;-73
2022/01/02 08:40:27;;;;;;;;;;;;;;;10.22;100.00;100902.00;5015370;28;20389;-73
2022/01/02 08:43:11;;;;;;;;;;;;;;;10.20;100.00;100899.50;5019008;28;19935;-74
2022/01/02 08:45:55;;;;;;;;;;;;;;;10.23;100.00;100890.56;5006255;28;19924;-74
2022/01/02 08:48:39;;;;;;;;;;;;;;;10.31;100.00;100883.66;4995510;28;19967;-73
2022/01/02 08:51:23;;;;;;;;;;;;;;;10.30;100.00;100870.63;5022653;28;20353;-73
2022/01/02 08:54:08;;;;;;;;;;;;;;;10.31;100.00;100859.22;5026039;28;19920;-74
2022/01/02 08:56:52;;;;;;;;;;;;;;;10.32;100.00;100869.59;5020816;28;19924;-73
2022/01/02 08:59:36;;;;;;;;;;;;;;;10.38;100.00;100855.06;5014855;28;20016;-74
2022/01/02 09:02:20;;;;;;;;;;;;;;;10.45;100.00;100857.94;4993047;28;20239;-74
2022/01/02 09:05:04;;;;;;;;;;;;;;;10.46;100.00;100838.63;5029476;28;20437;-73
2022/01/02 09:07:48;;;;;;;;;;;;;;;10.53;100.00;100844.97;5020854;28;19920;-73
2022/01/02 09:10:32;;;;;;;;;;;;;;;10.45;100.00;100829.09;5021616;28;20584;-74
2022/01/02 09:13:16;;;;;;;;;;;;;;;10.48;100.00;100834.88;5019374;28;19924;-73
2022/01/02 09:16:00;;;;;;;;;;;;;;;10.53;100.00;100823.97;5011874;28;19927;-72
2022/01/02 09:18:44;;;;;;;;;;;;;;;10.51;100.00;100815.44;5019898;28;20302;-74
2022/01/02 09:21:28;;;;;;;;;;;;;;;10.51;100.00;100823.28;5024184;28;19919;-73
2022/01/02 09:24:12;;;;;;;;;;;;;;;10.50;100.00;100805.91;5012540;28;19924;-72
2022/01/02 09:26:57;;;;;;;;;;;;;;;10.60;100.00;100804.03;5020253;28;19967;-74
2022/01/02 09:29:41;;;;;;;;;;;;;;;10.60;100.00;100809.28;5013114;28;20091;-73
2022/01/02 09:32:25;;;;;;;;;;;;;;;10.62;100.00;100796.84;5010570;28;20493;-75
2022/01/02 09:35:10;;;;;;;;;;;;;;;10.62;100.00;100802.09;5008582;28;19923;-75
2022/01/02 09:37:54;;;;;;;;;;;;;;;10.67;100.00;100792.00;5014857;28;20378;-74
2022/01/02 09:40:40;;;;;;;;;;;;;;;10.68;100.00;100787.56;5015701;28;19920;-72
2022/01/02 09:43:26;;;;;;;;;;;;;;;10.62;100.00;100775.06;5016766;28;19928;-73
2022/01/02 09:46:11;;;;;;;;;;;;;;;10.69;100.00;100774.31;5025476;28;19951;-72
2022/01/02 09:48:55;;;;;;;;;;;;;;;10.69;100.00;100773.50;5020910;28;19921;-73
2022/01/02 09:51:42;;;;;;;;;;;;;;;10.79;100.00;100776.88;5032125;28;19928;-73
2022/01/02 09:54:26;;;;;;;;;;;;;;;10.74;100.00;100754.69;5016481;28;19924;-73
2022/01/02 09:56:51;;;;;;;;;;;;;;;10.70;100.00;100746.31;4997071;28;19917;-73
2022/01/02 09:59:17;;;;;;;;;;;;;;;10.67;100.00;100743.97;5016551;28;20629;-73
2022/01/02 10:01:43;;;;;;;;;;;;;;;10.68;100.00;100742.97;5027805;28;19943;-73
2022/01/02 10:04:09;;;;;;;;;;;;;;;10.66;100.00;100737.91;5018732;28;19916;-74
2022/01/02 10:06:46;;;;;;;;;;;;;;;10.60;100.00;100724.53;5027628;28;19913;-73
2022/01/02 10:09:16;;;;;;;;;;;;;;;10.58;100.00;100724.69;5035118;28;19923;-72
2022/01/02 10:11:42;;;;;;;;;;;;;;;10.50;100.00;100714.94;5028683;28;19923;-72
2022/01/02 10:14:09;;;;;;;;;;;;;;;10.51;100.00;100728.88;5036834;28;19920;-74
2022/01/02 10:16:36;;;;;;;;;;;;;;;10.52;100.00;100712.16;5017983;28;19956;-73
2022/01/02 10:19:21;;;;;;;;;;;;;;;10.47;100.00;100715.25;5031384;28;19995;-73
2022/01/02 10:21:52;;;;;;;;;;;;;;;10.47;100.00;100702.13;5029143;28;20619;-73
2022/01/02 10:24:22;;;;;;;;;;;;;;;10.52;100.00;100705.13;5003030;28;19967;-76
2022/01/02 10:27:08;;;;;;;;;;;;;;;10.55;100.00;100695.28;5033381;28;19924;-74
2022/01/02 10:29:54;;;;;;;;;;;;;;;10.56;100.00;100700.41;5028350;28;19934;-73
2022/01/02 10:32:26;;;;;;;;;;;;;;;10.65;100.00;100694.28;5022615;28;19923;-74
2022/01/02 10:34:52;;;;;;;;;;;;;;;10.63;100.00;100687.53;5018506;28;19923;-73
2022/01/02 10:37:25;;;;;;;;;;;;;;;10.64;100.00;100681.28;5009030;28;19970;-73
2022/01/02 10:39:51;;;;;;;;;;;;;;;10.60;100.00;100685.19;5019264;28;19943;-73
2022/01/02 10:42:17;;;;;;;;;;;;;;;10.58;100.00;100676.66;5019577;28;19913;-74
2022/01/02 10:44:43;;;;;;;;;;;;;;;10.59;100.00;100681.75;5023344;28;20024;-74
2022/01/02 10:47:11;;;;;;;;;;;;;;;10.55;100.00;100680.41;5021157;28;20004;-75
2022/01/02 10:50:03;;;;;;;;;;;;;;;10.60;100.00;100672.91;4978498;28;19964;-74
2022/01/02 10:52:32;;;;;;;;;;;;;;;10.68;100.00;100674.78;5015355;28;19917;-74
2022/01/02 10:54:59;;;;;;;;;;;;;;;10.69;100.00;100666.75;5015516;28;20450;-74
2022/01/02 10:57:25;;;;;;;;;;;;;;;10.76;100.00;100661.75;5016485;28;20628;-74
2022/01/02 10:59:54;;;;;;;;;;;;;;;10.81;100.00;100667.38;5014201;28;19999;-74
2022/01/02 11:02:20;;;;;;;;;;;;;;;10.85;100.00;100650.38;5017377;28;20358;-73
2022/01/02 11:04:51;;;;;;;;;;;;;;;10.84;100.00;100647.88;5012404;28;19947;-73
2022/01/02 11:07:22;;;;;;;;;;;;;;;10.84;100.00;100651.31;4993620;28;19913;-74
2022/01/02 11:09:48;;;;;;;;;;;;;;;10.80;100.00;100644.72;5005704;28;20325;-75
2022/01/02 11:12:13;;;;;;;;;;;;;;;10.72;100.00;100631.56;5035715;28;19925;-74
2022/01/02 11:14:40;;;;;;;;;;;;;;;10.67;100.00;100629.38;5021360;28;19931;-75
2022/01/02 11:17:06;;;;;;;;;;;;;;;10.68;100.00;100632.81;5039515;28;19955;-73
2022/01/02 11:19:32;;;;;;;;;;;;;;;10.67;100.00;100623.31;5022222;28;19959;-73
2022/01/02 11:21:57;;;;;;;;;;;;;;;10.69;100.00;100610.84;5009474;28;19956;-73
2022/01/02 11:24:24;;;;;;;;;;;;;;;10.76;100.00;100604.03;5001243;28;19924;-73
2022/01/02 11:26:55;;;;;;;;;;;;;;;10.83;100.00;100594.59;5025784;28;19917;-75
2022/01/02 11:29:28;;;;;;;;;;;;;;;10.93;100.00;100583.19;5009085;28;21092;-74
2022/01/02 11:31:54;;;;;;;;;;;;;;;10.89;100.00;100583.47;5023922;28;19985;-75
2022/01/02 11:34:28;;;;;;;;;;;;;;;10.94;100.00;100572.50;5028072;28;20534;-75
2022/01/02 11:37:13;;;;;;;;;;;;;;;10.94;100.00;100571.69;4989539;28;20156;-73
2022/01/02 11:39:57;;;;;;;;;;;;;;;10.87;100.00;100564.44;5017943;28;19917;-75
2022/01/02 11:42:36;;;;;;;;;;;;;;;10.83;100.00;100559.63;5027062;28;19923;-74
2022/01/02 11:45:03;;;;;;;;;;;;;;;10.77;100.00;100560.25;4991210;28;20450;-73
2022/01/02 11:47:39;;;;;;;;;;;;;;;10.77;100.00;100557.63;5031569;28;19971;-74
2022/01/02 11:50:05;;;;;;;;;;;;;;;10.73;100.00;100562.34;5027038;28;19921;-74
2022/01/02 11:52:33;;;;;;;;;;;;;;;10.70;100.00;100552.19;4995000;28;19924;-74
2022/01/02 11:54:58;;;;;;;;;;;;;;;10.77;100.00;100544.50;5014684;28;20336;-75
2022/01/02 11:57:27;;;;;;;;;;;;;;;10.85;100.00;100526.19;5026109;28;19921;-74
2022/01/02 11:59:56;;;;;;;;;;;;;;;10.86;100.00;100530.47;5018202;28;19916;-74
2022/01/02 12:02:23;;;;;;;;;;;;;;;10.92;100.00;100532.47;5009508;28;20016;-73
2022/01/02 12:04:58;;;;;;;;;;;;;;;10.96;100.00;100536.44;5031187;28;19923;-73
2022/01/02 12:07:32;;;;;;;;;;;;;;;10.91;100.00;100529.03;5022370;28;19922;-74
2022/01/02 12:10:21;;;;;;;;;;;;;;;10.99;100.00;100522.22;4985903;28;19921;-73
2022/01/02 12:12:55;;;;;;;;;;;;;;;11.02;100.00;100516.63;5031462;28;20459;-74
2022/01/02 12:15:21;;;;;;;;;;;;;;;11.02;100.00;100520.09;4993526;28;20913;-74
2022/01/02 12:18:06;;;;;;;;;;;;;;;11.02;100.00;100519.25;5025939;28;19919;-74
2022/01/02 12:20:50;;;;;;;;;;;;;;;10.95;100.00;100500.69;5018669;28;19917;-74
2022/01/02 12:23:31;;;;;;;;;;;;;;;10.97;100.00;100505.78;5019951;28;20008;-74
2022/01/02 12:26:00;;;;;;;;;;;;;;;11.00;100.00;100501.06;5006722;28;19913;-73
2022/01/02 12:28:27;;;;;;;;;;;;;;;11.07;100.00;100485.50;5024059;28;19963;-73
2022/01/02 12:30:53;;;;;;;;;;;;;;;11.21;100.00;100481.50;4996725;28;19929;-73
2022/01/02 12:33:26;;;;;;;;;;;;;;;11.30;100.00;100484.00;5023352;28;20310;-74
2022/01/02 12:35:51;;;;;;;;;;;;;;;11.48;100.00;100476.00;5018864;28;19917;-73
2022/01/02 12:38:17;;;;;;;;;;;;;;;11.53;100.00;100482.56;5014999;28;20050;-74
2022/01/02 12:40:43;;;;;;;;;;;;;;;11.47;100.00;100471.75;4991414;28;19918;-73
2022/01/02 12:43:09;;;;;;;;;;;;;;;11.46;100.00;100482.41;5004514;28;19999;-74
2022/01/02 12:45:35;;;;;;;;;;;;;;;11.36;100.00;100472.03;5001348;28;19956;-73
2022/01/02 12:48:00;;;;;;;;;;;;;;;11.27;100.00;100472.97;5027860;28;20488;-74
2022/01/02 12:50:29;;;;;;;;;;;;;;;11.34;100.00;100475.78;5021081;28;19955;-73
2022/01/02 12:52:55;;;;;;;;;;;;;;;11.25;100.00;100464.44;5021860;28;19960;-73
2022/01/02 12:55:21;;;;;;;;;;;;;;;11.18;100.00;100464.22;5014087;28;20020;-73
2022/01/02 12:57:47;;;;;;;;;;;;;;;11.14;100.00;100465.53;4993088;28;20012;-73
2022/01/02 13:00:13;;;;;;;;;;;;;;;11.11;100.00;100460.59;5016677;28;19940;-72
2022/01/02 13:02:38;;;;;;;;;;;;;;;11.10;100.00;100464.19;5009260;28;19913;-73
2022/01/02 13:05:04;;;;;;;;;;;;;;;10.98;100.00;100465.44;4984176;28;19924;-74
2022/01/02 13:07:37;;;;;;;;;;;;;;;10.94;100.00;100462.31;5005768;28;19914;-72
2022/01/02 13:10:06;;;;;;;;;;;;;;;10.84;100.00;100467.66;5007700;28;20334;-74
2022/01/02 13:12:32;;;;;;;;;;;;;;;10.81;100.00;100464.53;5021549;28;19987;-72
2022/01/02 13:15:10;;;;;;;;;;;;;;;10.87;100.00;100450.81;5029317;28;20026;-72
2022/01/02 13:17:40;;;;;;;;;;;;;;;10.90;100.00;100453.91;5011512;28;20060;-73
2022/01/02 13:20:07;;;;;;;;;;;;;;;10.95;100.00;100442.16;5017489;28;20371;-72
2022/01/02 13:22:34;;;;;;;;;;;;;;;11.03;100.00;100457.94;5017647;28;19921;-72
2022/01/02 13:25:08;;;;;;;;;;;;;;;10.98;100.00;100450.53;4999750;28;19921;-73
2022/01/02 13:27:33;;;;;;;;;;;;;;;10.93;100.00;100451.97;5024089;28;20725;-73
2022/01/02 13:30:00;;;;;;;;;;;;;;;10.99;100.00;100449.53;5001710;28;19917;-74
2022/01/02 13:32:27;;;;;;;;;;;;;;;10.93;100.00;100451.97;5001840;28;20000;-75
2022/01/02 13:35:11;;;;;;;;;;;;;;;11.07;100.00;100452.19;5018555;28;20003;-73
2022/01/02 13:37:42;;;;;;;;;;;;;;;11.09;100.00;100437.13;4996243;28;19917;-72
2022/01/02 13:40:09;;;;;;;;;;;;;;;11.05;100.00;100438.41;4990626;28;19945;-74
2022/01/02 13:42:39;;;;;;;;;;;;;;;11.05;100.00;100437.59;5015885;28;19918;-73
2022/01/02 13:45:10;;;;;;;;;;;;;;;10.99;100.00;100431.16;5013911;28;19913;-73
2022/01/02 13:47:35;;;;;;;;;;;;;;;11.11;100.00;100439.59;5021475;28;19913;-73